Time;durP1;ratioP1;P1;durP2;ratioP2;P2;SDS_P1;SDS_P2;PMS_P1;PMS_P2;Temp;Humidity;BMP_temperature;BMP_pressure;BME280_temperature;BME280_humidity;BME280_pressure;Samples;Min_cycle;Max_cycle;Signal;HPM_P1;HPM_P2
2022/09/17 00:01:48;;;;;;;4.13;0.60;;;;;;;12.34;64.29;96945.59;4965700;28;20292;-76
2022/09/17 00:04:13;;;;;;;2.92;0.82;;;;;;;12.26;64.71;96934.88;4968918;28;20142;-77
2022/09/17 00:06:39;;;;;;;2.67;0.80;;;;;;;12.16;64.98;96952.09;4984084;28;20192;-77
2022/09/17 00:09:05;;;;;;;1.73;0.60;;;;;;;12.05;65.60;96939.31;4965669;28;20291;-77
2022/09/17 00:11:33;;;;;;;2.28;0.50;;;;;;;11.96;65.39;96946.84;4966442;28;20287;-77
2022/09/17 00:14:00;;;;;;;0.60;0.45;;;;;;;11.95;65.61;96945.28;4968032;28;20147;-77
2022/09/17 00:16:27;;;;;;;2.83;0.60;;;;;;;11.97;65.43;96943.22;4984222;28;20247;-76
2022/09/17 00:18:52;;;;;;;0.85;0.50;;;;;;;11.93;65.37;96929.91;4951617;28;20194;-77
2022/09/17 00:21:18;;;;;;;1.50;0.55;;;;;;;11.95;65.21;96940.06;4949598;28;20225;-77
2022/09/17 00:23:45;;;;;;;3.58;0.50;;;;;;;11.90;65.37;96932.22;4983329;28;20174;-77
2022/09/17 00:26:11;;;;;;;1.73;0.60;;;;;;;11.85;65.73;96932.19;4983988;28;20268;-77
2022/09/17 00:28:36;;;;;;;1.33;0.57;;;;;;;11.81;65.63;96935.31;4960132;28;20199;-77
2022/09/17 00:31:08;;;;;;;1.00;0.60;;;;;;;11.71;65.90;96945.72;4964312;28;20201;-76
2022/09/17 00:33:34;;;;;;;2.20;0.43;;;;;;;11.77;65.65;96936.09;4967024;28;20761;-77
2022/09/17 00:36:00;;;;;;;1.17;0.52;;;;;;;11.72;65.11;96941.28;4948176;28;20153;-77
2022/09/17 00:38:26;;;;;;;1.13;0.50;;;;;;;11.64;65.53;96949.63;4984061;28;20190;-76
2022/09/17 00:40:52;;;;;;;2.55;0.50;;;;;;;11.56;66.11;96941.25;4967306;28;20279;-76
2022/09/17 00:43:38;;;;;;;1.35;0.47;;;;;;;11.41;66.64;96947.22;4984029;28;20306;-77
2022/09/17 00:46:29;;;;;;;1.63;0.57;;;;;;;11.41;66.10;96954.22;4966030;28;20659;-77
2022/09/17 00:48:57;;;;;;;1.50;0.50;;;;;;;11.47;66.08;96949.84;4983355;28;20285;-76
2022/09/17 00:51:34;;;;;;;1.60;0.63;;;;;;;11.35;66.21;96950.81;4964173;28;20314;-77
2022/09/17 00:54:00;;;;;;;1.17;0.90;;;;;;;11.40;66.65;96950.06;4967949;28;20205;-77
2022/09/17 00:56:29;;;;;;;1.42;0.73;;;;;;;11.27;66.54;96951.28;4985029;28;20596;-77
2022/09/17 00:58:54;;;;;;;1.58;0.68;;;;;;;11.32;66.50;96948.72;4980231;28;20214;-76
2022/09/17 01:01:20;;;;;;;1.92;0.80;;;;;;;11.33;66.50;96950.28;4982832;28;20178;-77
2022/09/17 01:03:46;;;;;;;1.42;0.77;;;;;;;11.36;66.87;96949.00;4983567;28;20206;-77
2022/09/17 01:06:30;;;;;;;4.80;0.90;;;;;;;11.42;66.86;96953.19;4953925;28;20258;-77
2022/09/17 01:09:17;;;;;;;1.40;0.88;;;;;;;11.32;66.84;96951.31;4980432;28;20193;-77
2022/09/17 01:11:42;;;;;;;2.50;0.68;;;;;;;11.35;66.50;96952.66;4985312;28;20236;-77
2022/09/17 01:14:25;;;;;;;1.33;0.82;;;;;;;11.16;66.66;96954.91;4968880;28;20640;-78
2022/09/17 01:17:12;;;;;;;1.38;0.65;;;;;;;11.18;67.24;96958.81;4985602;28;20288;-77
2022/09/17 01:20:11;;;;;;;1.13;0.50;;;;;;;11.12;67.85;96954.63;4985180;28;20688;-78
2022/09/17 01:22:59;;;;;;;1.05;0.65;;;;;;;11.13;67.36;96950.97;4967917;28;20272;-77
2022/09/17 01:25:55;;;;;;;1.65;0.73;;;;;;;11.08;67.79;96948.34;4969088;28;20277;-77
2022/09/17 01:28:41;;;;;;;2.17;0.70;;;;;;;11.18;66.78;96945.00;4983529;28;20155;-77
2022/09/17 01:31:42;;;;;;;2.92;1.10;;;;;;;11.18;66.87;96948.38;4967874;28;20626;-78
2022/09/17 01:34:19;;;;;;;0.80;0.63;;;;;;;11.31;66.60;96941.16;4968059;28;20295;-78
2022/09/17 01:37:03;;;;;;;2.15;0.88;;;;;;;11.13;67.91;96935.34;4964001;28;20183;-77
2022/09/17 01:39:59;;;;;;;3.08;0.90;;;;;;;11.13;67.27;96939.78;4984472;28;20200;-77
2022/09/17 01:42:46;;;;;;;1.55;0.82;;;;;;;11.30;66.92;96942.97;4967570;28;20236;-77
2022/09/17 01:45:18;;;;;;;2.97;0.90;;;;;;;11.24;66.81;96936.16;4948255;28;20263;-77
2022/09/17 01:47:47;;;;;;;1.02;0.60;;;;;;;11.21;67.22;96941.91;4950742;28;20804;-77
2022/09/17 01:50:18;;;;;;;2.65;0.88;;;;;;;11.11;67.49;96947.06;4951055;28;20193;-77
2022/09/17 01:52:45;;;;;;;2.05;0.73;;;;;;;11.18;67.08;96942.41;4949196;28;20274;-77
2022/09/17 01:55:14;;;;;;;1.67;0.95;;;;;;;11.09;67.57;96939.50;4983238;28;20194;-77
2022/09/17 01:57:55;;;;;;;2.20;0.88;;;;;;;11.13;67.54;96944.97;4968595;28;20202;-77
2022/09/17 02:00:21;;;;;;;3.28;0.90;;;;;;;11.14;67.59;96939.53;4948865;28;20259;-77
2022/09/17 02:03:03;;;;;;;1.90;1.25;;;;;;;11.00;68.02;96947.00;4961378;28;20303;-77
2022/09/17 02:05:36;;;;;;;2.15;1.02;;;;;;;11.00;67.38;96949.63;4967428;28;20277;-77
2022/09/17 02:08:12;;;;;;;2.60;1.10;;;;;;;10.92;68.09;96960.50;4984203;28;20244;-77
2022/09/17 02:10:44;;;;;;;2.53;1.02;;;;;;;11.01;67.31;96969.41;4984334;28;20176;-77
2022/09/17 02:13:29;;;;;;;5.50;1.10;;;;;;;10.99;67.71;96975.91;4983904;28;20273;-78
2022/09/17 02:16:00;;;;;;;1.48;0.88;;;;;;;11.09;67.25;96968.16;4968415;28;20256;-78
2022/09/17 02:18:59;;;;;;;1.95;0.90;;;;;;;10.96;67.58;96971.97;4968254;28;20206;-78
2022/09/17 02:21:32;;;;;;;2.15;1.30;;;;;;;10.97;67.53;96973.56;4968160;28;20193;-77
2022/09/17 02:24:08;;;;;;;1.10;0.88;;;;;;;10.95;67.52;96980.84;4985296;28;20271;-77
2022/09/17 02:26:34;;;;;;;0.80;0.77;;;;;;;11.03;67.14;96980.34;4982916;28;20155;-77
2022/09/17 02:29:06;;;;;;;1.98;0.85;;;;;;;10.80;67.02;96968.50;4951150;28;20197;-77
2022/09/17 02:31:32;;;;;;;4.30;1.10;;;;;;;10.95;66.93;96970.44;4983461;28;20275;-77
2022/09/17 02:34:00;;;;;;;4.05;1.73;;;;;;;10.79;66.99;96976.56;4967915;28;20240;-77
2022/09/17 02:36:26;;;;;;;2.05;0.80;;;;;;;10.84;67.41;96979.97;4967449;28;20201;-77
2022/09/17 02:39:01;;;;;;;0.93;0.63;;;;;;;10.71;67.11;96974.41;4983222;28;20282;-77
2022/09/17 02:41:57;;;;;;;1.88;0.90;;;;;;;10.61;67.15;96962.91;4982250;28;20263;-78
2022/09/17 02:44:37;;;;;;;3.05;1.00;;;;;;;10.68;66.99;96966.06;4982475;28;20208;-77
2022/09/17 02:47:12;;;;;;;2.67;0.90;;;;;;;10.39;67.42;96967.41;4967495;28;20305;-77
2022/09/17 02:49:56;;;;;;;;;;;;;;;10.32;68.49;96970.22;4984477;28;20191;-77
2022/09/17 02:52:54;;;;;;;3.50;1.15;;;;;;;10.44;67.52;96972.66;4983452;28;20112;-77
2022/09/17 02:55:52;;;;;;;4.03;1.52;;;;;;;10.50;67.16;96974.25;4981647;28;20572;-77
2022/09/17 02:58:39;;;;;;;4.45;1.25;;;;;;;10.44;67.19;96975.25;4960010;28;20220;-77
2022/09/17 03:01:12;;;;;;;2.53;1.60;;;;;;;10.40;67.29;96967.16;4963054;28;20183;-77
2022/09/17 03:03:39;;;;;;;4.32;1.30;;;;;;;10.42;66.91;96970.31;4984554;28;20193;-77
2022/09/17 03:06:05;;;;;;;4.00;1.48;;;;;;;10.28;67.63;96969.91;4965856;28;20648;-77
2022/09/17 03:08:40;;;;;;;2.35;0.77;;;;;;;10.28;67.95;96976.91;4985617;28;20203;-77
2022/09/17 03:11:07;;;;;;;1.35;1.25;;;;;;;10.32;67.78;96991.03;4969350;28;20206;-77
2022/09/17 03:13:34;;;;;;;2.40;1.00;;;;;;;10.42;67.54;96995.56;4986032;28;20182;-77
2022/09/17 03:16:03;;;;;;;2.25;0.95;;;;;;;10.43;67.67;96989.31;4970122;28;20241;-77
2022/09/17 03:18:29;;;;;;;2.83;1.20;;;;;;;10.48;67.54;96982.31;4969980;28;20266;-77
2022/09/17 03:20:54;;;;;;;3.15;1.50;;;;;;;10.46;67.80;96991.41;4985852;28;20284;-77
2022/09/17 03:23:19;;;;;;;3.47;1.33;;;;;;;10.46;68.33;96983.59;4987625;28;20213;-77
2022/09/17 03:25:46;;;;;;;2.55;1.77;;;;;;;10.45;68.33;96977.63;4953375;28;20837;-77
2022/09/17 03:28:11;;;;;;;2.30;1.42;;;;;;;10.52;69.00;96980.03;4966735;28;20280;-77
2022/09/17 03:30:37;;;;;;;5.45;1.50;;;;;;;10.64;68.54;96982.44;4985074;28;20259;-77
2022/09/17 03:33:02;;;;;;;3.60;1.38;;;;;;;10.72;68.95;96981.97;4947621;28;20696;-77
2022/09/17 03:35:28;;;;;;;1.95;1.35;;;;;;;10.71;68.43;96980.44;4969216;28;20365;-77
2022/09/17 03:37:53;;;;;;;3.45;1.50;;;;;;;10.82;68.57;96981.28;4970641;28;20279;-77
2022/09/17 03:40:19;;;;;;;3.90;1.38;;;;;;;10.87;68.62;96976.09;4968310;28;20172;-77
2022/09/17 03:42:44;;;;;;;1.58;1.30;;;;;;;10.89;68.56;96976.63;4968584;28;20183;-77
2022/09/17 03:45:10;;;;;;;4.00;1.40;;;;;;;10.99;68.12;96965.50;4953215;28;20180;-78
2022/09/17 03:47:36;;;;;;;3.42;1.30;;;;;;;10.99;68.44;96968.09;4953832;28;20216;-77
2022/09/17 03:50:02;;;;;;;2.85;1.20;;;;;;;11.05;68.33;96978.31;4985477;28;20268;-78
2022/09/17 03:52:27;;;;;;;3.75;1.42;;;;;;;11.14;68.39;96983.81;4951694;28;20155;-78
2022/09/17 03:54:52;;;;;;;2.42;1.38;;;;;;;11.13;68.70;96984.06;4952826;28;20241;-77
2022/09/17 03:57:18;;;;;;;2.35;1.73;;;;;;;11.19;67.28;96990.88;4986422;28;20280;-77
2022/09/17 03:59:43;;;;;;;1.42;1.33;;;;;;;11.18;68.11;96990.09;4970408;28;20198;-77
2022/09/17 04:02:08;;;;;;;3.42;1.17;;;;;;;11.17;67.90;97000.75;4984233;28;20271;-77
2022/09/17 04:04:34;;;;;;;3.00;1.35;;;;;;;11.19;68.16;96990.88;4970485;28;20370;-77
2022/09/17 04:06:59;;;;;;;3.13;1.60;;;;;;;11.25;68.34;97000.28;4970108;28;20197;-77
2022/09/17 04:09:24;;;;;;;3.50;1.50;;;;;;;11.22;68.62;97006.81;4970447;28;20645;-77
2022/09/17 04:11:50;;;;;;;2.97;1.27;;;;;;;11.23;69.12;97000.53;4969787;28;20186;-77
2022/09/17 04:14:15;;;;;;;3.38;1.17;;;;;;;11.27;69.11;97000.03;4970441;28;20108;-77
2022/09/17 04:16:40;;;;;;;1.77;1.10;;;;;;;11.37;68.17;97002.69;4970305;28;20209;-77
2022/09/17 04:19:06;;;;;;;3.60;1.30;;;;;;;11.42;68.07;97000.13;4953385;28;20167;-77
2022/09/17 04:21:31;;;;;;;3.50;1.50;;;;;;;11.41;68.97;96995.94;4970090;28;20146;-78
2022/09/17 04:23:57;;;;;;;3.72;1.55;;;;;;;11.48;68.00;96999.13;4947321;28;20359;-78
2022/09/17 04:26:22;;;;;;;4.35;1.30;;;;;;;11.56;67.70;96996.00;4984468;28;20366;-77
2022/09/17 04:28:48;;;;;;;3.97;1.50;;;;;;;11.54;68.07;97002.53;4969275;28;20370;-77
2022/09/17 04:31:13;;;;;;;2.97;1.55;;;;;;;11.53;68.05;96993.94;4985336;28;20750;-77
2022/09/17 04:33:38;;;;;;;4.85;1.50;;;;;;;11.56;69.11;96998.59;4985432;28;20251;-77
2022/09/17 04:36:04;;;;;;;4.18;1.52;;;;;;;11.62;68.88;97002.03;4969340;28;20632;-78
2022/09/17 04:38:29;;;;;;;4.18;1.67;;;;;;;11.75;68.42;97005.97;4985989;28;20553;-77
2022/09/17 04:40:56;;;;;;;3.20;2.13;;;;;;;11.69;68.62;97004.41;4952548;28;20257;-77
2022/09/17 04:43:22;;;;;;;3.65;2.03;;;;;;;11.74;68.17;97007.81;4979451;28;20206;-77
2022/09/17 04:45:49;;;;;;;5.93;2.17;;;;;;;11.80;67.75;96998.19;4968269;28;20255;-77
2022/09/17 04:48:15;;;;;;;4.60;2.33;;;;;;;11.76;68.04;97005.72;4964071;28;20203;-77
2022/09/17 04:50:40;;;;;;;3.17;1.77;;;;;;;11.78;68.10;97014.09;4965398;28;20201;-77
2022/09/17 04:53:06;;;;;;;4.47;1.67;;;;;;;11.78;67.92;97016.69;4985730;28;20209;-77
2022/09/17 04:55:31;;;;;;;3.58;2.17;;;;;;;11.75;68.13;97017.19;4982883;28;20270;-77
2022/09/17 04:57:57;;;;;;;4.90;2.05;;;;;;;11.75;68.32;97019.81;4985465;28;20213;-77
2022/09/17 05:00:23;;;;;;;4.50;1.92;;;;;;;11.75;68.23;97019.81;4967716;28;20201;-77
2022/09/17 05:02:50;;;;;;;3.28;1.92;;;;;;;11.73;68.20;97027.09;4964451;28;20283;-77
2022/09/17 05:05:17;;;;;;;3.80;2.00;;;;;;;11.79;68.63;97020.09;4980127;28;20301;-78
2022/09/17 05:07:42;;;;;;;3.20;2.25;;;;;;;11.71;68.41;97021.38;4984320;28;20252;-77
2022/09/17 05:10:09;;;;;;;4.22;2.40;;;;;;;11.80;68.25;97021.66;4984885;28;20197;-77
2022/09/17 05:12:34;;;;;;;3.63;2.33;;;;;;;11.80;68.37;97019.81;4966634;28;20282;-77
2022/09/17 05:15:00;;;;;;;7.00;2.58;;;;;;;11.75;68.33;97024.25;4983075;28;20356;-77
2022/09/17 05:17:26;;;;;;;3.22;2.13;;;;;;;11.77;68.47;97033.41;4966609;28;20205;-78
2022/09/17 05:19:52;;;;;;;5.57;2.80;;;;;;;11.79;68.81;97026.09;4980108;28;20188;-78
2022/09/17 05:22:18;;;;;;;4.50;2.35;;;;;;;11.79;68.47;97020.88;4967037;28;20251;-78
2022/09/17 05:24:43;;;;;;;3.55;2.30;;;;;;;11.83;68.28;97030.81;4983284;28;20276;-77
2022/09/17 05:27:08;;;;;;;4.35;2.80;;;;;;;11.85;69.05;97023.50;4966760;28;20182;-77
2022/09/17 05:29:35;;;;;;;4.35;2.70;;;;;;;11.84;68.15;97029.75;4981682;28;20217;-78
2022/09/17 05:32:01;;;;;;;4.03;2.15;;;;;;;11.87;68.35;97029.25;4982401;28;20615;-77
2022/09/17 05:34:27;;;;;;;2.67;1.92;;;;;;;11.85;68.54;97026.88;4966232;28;20170;-77
2022/09/17 05:36:52;;;;;;;7.57;2.40;;;;;;;11.81;68.39;97031.06;4951013;28;20285;-77
2022/09/17 05:39:20;;;;;;;6.22;2.95;;;;;;;11.84;68.53;97033.16;4967223;28;20104;-77
2022/09/17 05:41:45;;;;;;;4.35;2.40;;;;;;;11.89;68.67;97040.19;4982735;28;20195;-78
2022/09/17 05:44:10;;;;;;;5.60;2.42;;;;;;;11.90;68.23;97041.78;4964083;28;20241;-77
2022/09/17 05:46:36;;;;;;;3.88;2.53;;;;;;;11.83;68.19;97041.25;4966317;28;20236;-77
2022/09/17 05:49:02;;;;;;;4.65;2.38;;;;;;;11.84;68.53;97043.59;4951394;28;20177;-77
2022/09/17 05:51:27;;;;;;;4.78;2.38;;;;;;;11.92;67.97;97053.56;4967823;28;20300;-77
2022/09/17 05:53:53;;;;;;;5.05;2.67;;;;;;;11.90;68.11;97057.44;4967556;28;20278;-77
2022/09/17 05:56:20;;;;;;;3.83;2.60;;;;;;;11.86;68.38;97062.38;4948122;28;20211;-77
2022/09/17 05:58:46;;;;;;;3.63;2.45;;;;;;;11.81;68.33;97057.16;4983569;28;20311;-77
2022/09/17 06:01:14;;;;;;;4.03;3.00;;;;;;;11.79;68.53;97059.22;4981711;28;20797;-77
2022/09/17 06:03:43;;;;;;;3.92;2.60;;;;;;;11.81;68.35;97063.13;4984368;28;20386;-77
2022/09/17 06:06:09;;;;;;;6.45;2.47;;;;;;;11.86;68.66;97062.38;4984877;28;20108;-77
2022/09/17 06:08:35;;;;;;;5.78;2.80;;;;;;;11.86;69.13;97059.78;4968566;28;20411;-78
2022/09/17 06:11:07;;;;;;;5.60;2.53;;;;;;;11.71;68.79;97060.50;4985318;28;20296;-77
2022/09/17 06:13:33;;;;;;;6.05;3.13;;;;;;;11.89;69.09;97066.28;4948445;28;20276;-77
2022/09/17 06:15:59;;;;;;;2.97;2.17;;;;;;;11.95;68.62;97066.09;4982615;28;20146;-77
2022/09/17 06:18:24;;;;;;;5.78;2.47;;;;;;;12.04;68.51;97070.81;4968826;28;20287;-77
2022/09/17 06:20:56;;;;;;;5.97;2.65;;;;;;;12.02;68.37;97065.84;4948391;28;20611;-77
2022/09/17 06:23:22;;;;;;;8.25;2.80;;;;;;;12.13;68.15;97079.72;4966922;28;20282;-78
2022/09/17 06:25:56;;;;;;;4.68;2.10;;;;;;;12.07;68.53;97075.53;4983268;28;20373;-77
2022/09/17 06:28:21;;;;;;;5.78;2.58;;;;;;;12.27;67.60;97072.19;4951624;28;20147;-77
2022/09/17 06:30:47;;;;;;;5.68;2.45;;;;;;;12.33;67.93;97081.59;4982422;28;20331;-78
2022/09/17 06:33:13;;;;;;;4.93;2.03;;;;;;;12.33;67.75;97074.56;4983403;28;20221;-77
2022/09/17 06:35:38;;;;;;;4.38;2.17;;;;;;;12.25;67.46;97075.06;4951045;28;20222;-77
2022/09/17 06:38:04;;;;;;;3.15;1.95;;;;;;;12.37;66.73;97077.44;4966714;28;20261;-77
2022/09/17 06:40:30;;;;;;;3.20;2.13;;;;;;;12.37;67.15;97082.66;4948164;28;20195;-78
2022/09/17 06:42:58;;;;;;;4.78;2.15;;;;;;;12.36;67.52;97086.31;4981971;28;20322;-77
2022/09/17 06:45:25;;;;;;;4.00;2.10;;;;;;;12.53;66.99;97075.66;4984779;28;20269;-78
2022/09/17 06:47:50;;;;;;;4.75;2.22;;;;;;;12.48;67.41;97079.03;4969400;28;20707;-78
2022/09/17 06:50:16;;;;;;;4.07;1.98;;;;;;;12.55;66.36;97084.78;4971083;28;20220;-77
2022/09/17 06:52:52;;;;;;;3.53;2.10;;;;;;;12.28;67.30;97082.38;4970620;28;20608;-78
2022/09/17 06:55:18;;;;;;;6.50;2.83;;;;;;;12.52;67.84;97089.75;4970658;28;20487;-77
2022/09/17 06:57:43;;;;;;;4.07;1.95;;;;;;;12.64;67.59;97085.06;4970216;28;20352;-77
2022/09/17 07:00:10;;;;;;;4.60;2.17;;;;;;;12.78;68.22;97092.38;4969869;28;20356;-77
2022/09/17 07:02:35;;;;;;;3.30;2.20;;;;;;;12.83;67.73;97084.56;4983318;28;20281;-77
2022/09/17 07:05:01;;;;;;;4.57;2.25;;;;;;;12.97;68.11;97082.22;4969492;28;20286;-77
2022/09/17 07:07:27;;;;;;;3.78;2.80;;;;;;;13.20;65.88;97078.28;4971237;28;20353;-78
2022/09/17 07:09:52;;;;;;;4.60;1.80;;;;;;;13.22;65.60;97076.97;4953889;28;20374;-79
2022/09/17 07:12:18;;;;;;;3.88;1.60;;;;;;;13.46;64.48;97081.66;4985975;28;20274;-78
2022/09/17 07:14:44;;;;;;;3.97;1.92;;;;;;;13.60;65.00;97077.44;4987751;28;20350;-77
2022/09/17 07:17:09;;;;;;;3.33;1.63;;;;;;;13.75;62.99;97079.22;4986024;28;20320;-78
2022/09/17 07:19:34;;;;;;;5.25;2.00;;;;;;;13.81;64.07;97072.94;4986394;28;20214;-78
2022/09/17 07:22:00;;;;;;;4.57;1.90;;;;;;;13.97;62.25;97076.28;4984479;28;20572;-78
2022/09/17 07:24:25;;;;;;;3.50;1.38;;;;;;;13.92;62.26;97084.16;4969076;28;20718;-78
2022/09/17 07:26:50;;;;;;;5.57;1.50;;;;;;;13.98;61.69;97080.47;4980965;28;20666;-77
2022/09/17 07:29:16;;;;;;;3.40;1.60;;;;;;;13.84;61.81;97088.09;4986987;28;20153;-77
2022/09/17 07:31:42;;;;;;;4.75;2.03;;;;;;;13.97;61.62;97092.00;4986127;28;20668;-77
2022/09/17 07:34:09;;;;;;;5.18;1.92;;;;;;;14.15;61.45;97084.56;4986873;28;20302;-78
2022/09/17 07:36:34;;;;;;;5.32;1.83;;;;;;;14.27;60.89;97086.88;4967820;28;20561;-78
2022/09/17 07:39:00;;;;;;;4.47;1.73;;;;;;;14.36;61.22;97083.44;4984244;28;20174;-78
2022/09/17 07:41:25;;;;;;;6.05;2.03;;;;;;;14.55;59.85;97090.66;4983659;28;20213;-78
2022/09/17 07:43:52;;;;;;;2.55;1.35;;;;;;;14.79;59.75;97093.41;4986456;28;20206;-78
2022/09/17 07:46:19;;;;;;;3.85;1.60;;;;;;;14.97;59.27;97090.09;4970003;28;20248;-78
2022/09/17 07:48:45;;;;;;;3.08;1.10;;;;;;;15.15;58.04;97091.28;4969159;28;20320;-78
2022/09/17 07:51:21;;;;;;;2.50;0.98;;;;;;;15.40;58.31;97092.09;4968238;28;20228;-78
2022/09/17 07:53:48;;;;;;;4.03;1.17;;;;;;;15.76;56.68;97097.00;4969400;28;20202;-78
2022/09/17 07:56:15;;;;;;;2.08;0.95;;;;;;;15.74;56.14;97089.38;4953238;28;20239;-78
2022/09/17 07:58:41;;;;;;;2.42;1.10;;;;;;;15.97;55.85;97094.16;4966343;28;20285;-78
2022/09/17 08:01:08;;;;;;;3.67;0.98;;;;;;;15.62;55.50;97099.50;4949665;28;20584;-78
2022/09/17 08:03:34;;;;;;;2.55;1.50;;;;;;;15.43;56.81;97104.69;4969726;28;20246;-78
2022/09/17 08:06:11;;;;;;;2.88;1.35;;;;;;;15.40;57.80;97110.47;4950033;28;20182;-78
2022/09/17 08:08:38;;;;;;;2.28;1.20;;;;;;;15.65;56.63;97108.66;4969955;28;20202;-77
2022/09/17 08:11:06;;;;;;;1.95;1.10;;;;;;;15.83;55.10;97104.56;4957210;28;20312;-78
2022/09/17 08:13:32;;;;;;;3.67;1.13;;;;;;;15.81;55.11;97098.81;4967180;28;20198;-78
2022/09/17 08:16:20;;;;;;;3.55;1.00;;;;;;;15.43;55.85;97107.28;4964892;28;20198;-77
2022/09/17 08:18:46;;;;;;;3.63;1.38;;;;;;;15.34;56.68;97108.97;4979656;28;20193;-78
2022/09/17 08:21:14;;;;;;;4.30;1.10;;;;;;;15.42;56.75;97102.31;4969931;28;20160;-77
2022/09/17 08:23:40;;;;;;;5.80;1.80;;;;;;;15.25;57.04;97098.28;4969154;28;20270;-77
2022/09/17 08:26:08;;;;;;;2.30;0.85;;;;;;;15.45;56.57;97091.28;4946631;28;20203;-78
2022/09/17 08:28:34;;;;;;;3.55;1.55;;;;;;;15.83;56.21;97097.47;4984474;28;20198;-78
2022/09/17 08:31:02;;;;;;;3.05;1.25;;;;;;;16.07;54.90;97086.16;4982510;28;20194;-78
2022/09/17 08:33:38;;;;;;;4.07;1.05;;;;;;;16.08;54.30;97093.75;4968301;28;20640;-78
2022/09/17 08:36:05;;;;;;;3.42;0.80;;;;;;;16.60;53.00;97093.06;4968217;28;20702;-78
2022/09/17 08:38:33;;;;;;;2.33;0.90;;;;;;;16.70;52.98;97092.16;4951859;28;20255;-77
2022/09/17 08:41:01;;;;;;;3.90;1.05;;;;;;;16.88;52.39;97101.91;4968735;28;20635;-78
2022/09/17 08:43:27;;;;;;;4.07;1.02;;;;;;;17.01;52.49;97100.38;4969056;28;20292;-78
2022/09/17 08:45:56;;;;;;;2.47;1.10;;;;;;;16.90;52.14;97102.41;4967746;28;20284;-78
2022/09/17 08:48:24;;;;;;;1.63;0.63;;;;;;;17.11;50.81;97102.06;4947134;28;20543;-78
2022/09/17 08:50:50;;;;;;;3.05;0.80;;;;;;;16.94;51.92;97107.88;4984105;28;20683;-77
2022/09/17 08:54:01;;;;;;;3.10;0.82;;;;;;;16.87;51.18;97104.81;4968351;28;20616;-78
2022/09/17 08:56:26;;;;;;;5.18;0.68;;;;;;;17.35;49.61;97102.72;4967047;28;20194;-78
2022/09/17 08:58:54;;;;;;;2.45;0.63;;;;;;;17.63;48.21;97107.22;4968042;28;20193;-78
2022/09/17 09:01:32;;;;;;;3.05;0.90;;;;;;;17.60;47.32;97111.25;4981981;28;20193;-78
2022/09/17 09:04:20;;;;;;;4.97;0.80;;;;;;;17.29;47.00;97098.63;4984710;28;20230;-77
2022/09/17 09:06:49;;;;;;;4.35;1.00;;;;;;;17.50;46.75;97096.41;4983541;28;20197;-78
2022/09/17 09:09:16;;;;;;;4.40;0.80;;;;;;;17.45;45.03;97099.13;4986706;28;20181;-78
2022/09/17 09:11:42;;;;;;;3.45;0.63;;;;;;;17.64;47.49;97095.66;4967214;28;20186;-77
2022/09/17 09:14:27;;;;;;;3.08;0.98;;;;;;;17.72;46.44;97094.97;4950239;28;20660;-79
2022/09/17 09:16:54;;;;;;;3.27;0.70;;;;;;;17.57;46.20;97103.94;4983300;28;20275;-80
2022/09/17 09:19:25;;;;;;;2.95;0.90;;;;;;;17.41;46.74;97106.81;4967387;28;20639;-77
2022/09/17 09:22:15;;;;;;;2.58;0.60;;;;;;;16.99;47.94;97105.94;4967620;28;20189;-77
2022/09/17 09:24:45;;;;;;;4.18;0.60;;;;;;;17.20;47.59;97106.41;4983285;28;20277;-77
2022/09/17 09:27:13;;;;;;;7.72;1.33;;;;;;;17.41;48.01;97114.72;4982802;28;20320;-78
2022/09/17 09:29:58;;;;;;;1.65;0.60;;;;;;;16.83;47.07;97117.75;4986313;28;20360;-77
2022/09/17 09:32:32;;;;;;;5.63;1.10;;;;;;;16.92;46.53;97118.66;4966258;28;20201;-76
2022/09/17 09:35:08;;;;;;;3.17;0.65;;;;;;;16.70;46.19;97121.84;4982720;28;20741;-77
2022/09/17 09:37:34;;;;;;;3.95;0.77;;;;;;;16.90;46.84;97117.41;4951371;28;20195;-78
2022/09/17 09:40:21;;;;;;;2.60;0.63;;;;;;;16.80;47.00;97123.56;4967890;28;20256;-78
2022/09/17 09:42:48;;;;;;;4.40;0.80;;;;;;;17.32;45.27;97121.69;4983461;28;20549;-77
2022/09/17 09:45:15;;;;;;;4.15;0.50;;;;;;;17.36;46.00;97124.56;4949701;28;20234;-77
2022/09/17 09:48:03;;;;;;;2.78;0.52;;;;;;;16.94;46.88;97128.91;4949926;28;20238;-77
2022/09/17 09:51:08;;;;;;;2.92;0.73;;;;;;;16.95;45.05;97125.22;4966229;28;20692;-78
2022/09/17 09:53:38;;;;;;;3.35;0.57;;;;;;;17.26;45.07;97122.09;4983586;28;20100;-77
2022/09/17 09:56:35;;;;;;;4.13;0.88;;;;;;;16.87;45.36;97128.50;4951780;28;20323;-77
2022/09/17 09:59:06;;;;;;;4.07;1.20;;;;;;;16.96;43.76;97116.25;4983480;28;20584;-77
2022/09/17 10:01:33;;;;;;;5.10;0.60;;;;;;;17.12;44.28;97117.56;4963101;28;20643;-78
2022/09/17 10:03:58;;;;;;;3.95;0.80;;;;;;;17.18;44.33;97113.78;4980088;28;20655;-79
2022/09/17 10:06:24;;;;;;;2.83;0.73;;;;;;;17.24;43.74;97109.22;4983633;28;20194;-76
2022/09/17 10:08:49;;;;;;;2.17;0.60;;;;;;;17.19;43.76;97112.72;4978898;28;20633;-77
2022/09/17 10:11:26;;;;;;;2.90;0.57;;;;;;;16.99;44.23;97113.81;4983864;28;20178;-77
2022/09/17 10:13:52;;;;;;;2.00;0.43;;;;;;;17.34;42.69;97106.44;4987501;28;20206;-77
2022/09/17 10:16:26;;;;;;;2.53;0.75;;;;;;;17.23;43.24;97112.91;4966762;28;20379;-77
2022/09/17 10:19:04;;;;;;;0.88;0.55;;;;;;;16.91;45.07;97103.16;4982154;28;20209;-77
2022/09/17 10:21:38;;;;;;;3.47;0.57;;;;;;;16.94;44.22;97108.63;4986779;28;20332;-78
2022/09/17 10:24:13;;;;;;;2.88;0.68;;;;;;;16.87;45.06;97112.72;4981666;28;20119;-77
2022/09/17 10:26:38;;;;;;;;;;;;;;;16.28;47.35;97111.13;4987319;28;20668;-78
2022/09/17 10:29:05;;;;;;;1.95;0.40;;;;;;;16.81;46.36;97111.97;4969738;28;20074;-78
2022/09/17 10:31:51;;;;;;;2.70;0.50;;;;;;;16.43;48.25;97114.59;4985404;28;20174;-78
2022/09/17 10:34:27;;;;;;;4.13;0.80;;;;;;;16.53;47.74;97134.72;4986358;28;20283;-78
2022/09/17 10:36:55;;;;;;;3.97;0.77;;;;;;;15.93;52.97;97141.19;4986170;28;20179;-78
2022/09/17 10:39:30;;;;;;;2.35;0.73;;;;;;;15.41;55.28;97140.13;5093289;23;20110;-79
2022/09/17 10:42:13;;;;;;;3.90;0.65;;;;;;;15.35;56.19;97150.66;4972304;28;20646;-79
2022/09/17 10:44:56;;;;;;;4.15;1.15;;;;;;;14.90;58.76;97154.41;4942199;28;20057;-78
2022/09/17 10:47:35;;;;;;;4.75;0.95;;;;;;;14.83;58.26;97156.56;4966452;28;20748;-79
2022/09/17 10:50:04;;;;;;;5.15;0.88;;;;;;;14.92;60.36;97173.25;4958116;28;20029;-79
2022/09/17 10:52:33;;;;;;;2.83;0.80;;;;;;;14.96;60.50;97169.84;4959391;28;20033;-79
2022/09/17 10:55:04;;;;;;;4.82;0.82;;;;;;;14.75;61.78;97168.38;4962241;28;20075;-80
2022/09/17 10:57:54;;;;;;;7.38;1.17;;;;;;;14.65;61.93;97166.63;4962522;28;20024;-78
2022/09/17 11:00:22;;;;;;;7.78;2.67;;;;;;;14.81;62.00;97169.16;4985271;28;20032;-80
2022/09/17 11:03:12;;;;;;;4.63;1.60;;;;;;;14.43;64.23;97167.72;4967112;28;20036;-81
2022/09/17 11:05:48;;;;;;;3.00;1.13;;;;;;;14.50;64.84;97158.81;4961265;28;20575;-81
2022/09/17 11:08:24;;;;;;;5.00;1.95;;;;;;;14.55;63.24;97158.78;4979164;28;20033;-81
2022/09/17 11:11:13;;;;;;;3.58;2.10;;;;;;;14.49;64.34;97158.00;4961320;28;20044;-81
2022/09/17 11:13:57;;;;;;;14.38;6.35;;;;;;;14.44;65.65;97158.03;4962454;28;20017;-80
2022/09/17 11:16:39;;;;;;;21.38;11.55;;;;;;;14.54;64.43;97150.13;4957515;28;20037;-81
2022/09/17 11:19:26;;;;;;;3.50;1.08;;;;;;;14.53;63.74;97160.88;4977785;28;20033;-81
2022/09/17 11:22:23;;;;;;;3.75;0.85;;;;;;;14.52;63.01;97159.31;4966680;28;20026;-81
2022/09/17 11:25:01;;;;;;;1.88;0.70;;;;;;;14.75;60.98;97163.13;4966833;28;20777;-80
2022/09/17 11:28:12;;;;;;;3.30;0.98;;;;;;;14.58;61.80;97159.06;4974425;28;20090;-80
2022/09/17 11:30:55;;;;;;;2.78;0.93;;;;;;;14.60;61.28;97153.56;4968573;28;20041;-81
2022/09/17 11:33:45;;;;;;;1.98;0.70;;;;;;;14.54;62.98;97157.22;4962273;28;20112;-81
2022/09/17 11:36:16;;;;;;;1.63;0.68;;;;;;;14.62;63.39;97151.44;4955695;28;20024;-81
2022/09/17 11:38:44;;;;;;;2.33;0.65;;;;;;;14.70;62.73;97145.63;4942354;28;20078;-81
2022/09/17 11:41:14;;;;;;;3.28;0.50;;;;;;;14.71;62.74;97144.56;4943338;28;20048;-81
2022/09/17 11:43:59;;;;;;;0.77;0.77;;;;;;;14.79;63.25;97141.38;4955805;28;20048;-81
2022/09/17 11:46:29;;;;;;;4.63;2.23;;;;;;;15.04;62.80;97144.09;4962268;28;20039;-81
2022/09/17 11:48:58;;;;;;;6.40;3.92;;;;;;;15.45;60.70;97128.78;4933073;28;20660;-81
2022/09/17 11:51:32;;;;;;;2.28;1.15;;;;;;;15.52;61.38;97126.66;4946996;28;20951;-81
2022/09/17 11:54:25;;;;;;;2.28;1.10;;;;;;;15.81;61.03;97125.84;4945339;28;20052;-81